sensor_id;sensor_type;location;lat;lon;timestamp;P1;P2;P0
55518;PMS5003;41724;51.176;-0.708;2023-03-26T00:00:48;5;4;
55518;PMS5003;41724;51.176;-0.708;2023-03-26T00:03:16;4;4;
55518;PMS5003;41724;51.176;-0.708;2023-03-26T00:05:43;9;6;
55518;PMS5003;41724;51.176;-0.708;2023-03-26T00:08:11;7;4;
55518;PMS5003;41724;51.176;-0.708;2023-03-26T00:10:39;6;6;
55518;PMS5003;41724;51.176;-0.708;2023-03-26T00:13:07;13;8;
55518;PMS5003;41724;51.176;-0.708;2023-03-26T00:15:35;8;5;
55518;PMS5003;41724;51.176;-0.708;2023-03-26T00:18:03;6;5;
55518;PMS5003;41724;51.176;-0.708;2023-03-26T00:20:30;7;6;
55518;PMS5003;41724;51.176;-0.708;2023-03-26T00:22:58;6;6;
55518;PMS5003;41724;51.176;-0.708;2023-03-26T00:25:25;5;5;
55518;PMS5003;41724;51.176;-0.708;2023-03-26T00:27:53;10;8;
55518;PMS5003;41724;51.176;-0.708;2023-03-26T00:30:20;7;5;
55518;PMS5003;41724;51.176;-0.708;2023-03-26T00:32:47;8;7;
55518;PMS5003;41724;51.176;-0.708;2023-03-26T00:35:14;11;6;
55518;PMS5003;41724;51.176;-0.708;2023-03-26T00:37:41;8;5;
55518;PMS5003;41724;51.176;-0.708;2023-03-26T00:40:08;6;3;
55518;PMS5003;41724;51.176;-0.708;2023-03-26T00:42:36;7;5;
55518;PMS5003;41724;51.176;-0.708;2023-03-26T00:45:03;9;6;
55518;PMS5003;41724;51.176;-0.708;2023-03-26T00:47:32;8;7;
55518;PMS5003;41724;51.176;-0.708;2023-03-26T00:49:59;10;8;
55518;PMS5003;41724;51.176;-0.708;2023-03-26T00:52:27;6;5;
55518;PMS5003;41724;51.176;-0.708;2023-03-26T00:54:54;8;6;
55518;PMS5003;41724;51.176;-0.708;2023-03-26T00:57:21;8;5;
55518;PMS5003;41724;51.176;-0.708;2023-03-26T00:59:49;8;5;
55518;PMS5003;41724;51.176;-0.708;2023-03-26T01:02:17;6;5;
55518;PMS5003;41724;51.176;-0.708;2023-03-26T01:04:45;10;6;
55518;PMS5003;41724;51.176;-0.708;2023-03-26T01:07:18;7;5;
55518;PMS5003;41724;51.176;-0.708;2023-03-26T01:09:45;9;7;
55518;PMS5003;41724;51.176;-0.708;2023-03-26T01:12:16;10;7;
55518;PMS5003;41724;51.176;-0.708;2023-03-26T01:14:45;14;11;
55518;PMS5003;41724;51.176;-0.708;2023-03-26T01:17:14;16;12;
55518;PMS5003;41724;51.176;-0.708;2023-03-26T01:19:44;10;8;
55518;PMS5003;41724;51.176;-0.708;2023-03-26T01:22:16;11;10;
55518;PMS5003;41724;51.176;-0.708;2023-03-26T01:24:45;7;5;
55518;PMS5003;41724;51.176;-0.708;2023-03-26T01:27:16;7;5;
55518;PMS5003;41724;51.176;-0.708;2023-03-26T01:29:53;5;4;
55518;PMS5003;41724;51.176;-0.708;2023-03-26T01:32:29;8;6;
55518;PMS5003;41724;51.176;-0.708;2023-03-26T01:35:15;6;5;
55518;PMS5003;41724;51.176;-0.708;2023-03-26T01:37:53;4;3;
55518;PMS5003;41724;51.176;-0.708;2023-03-26T01:40:28;2;2;
55518;PMS5003;41724;51.176;-0.708;2023-03-26T01:43:02;1;1;
55518;PMS5003;41724;51.176;-0.708;2023-03-26T01:45:39;1;1;
55518;PMS5003;41724;51.176;-0.708;2023-03-26T01:48:08;1;1;
55518;PMS5003;41724;51.176;-0.708;2023-03-26T01:50:35;1;0;
55518;PMS5003;41724;51.176;-0.708;2023-03-26T01:53:02;1;1;
55518;PMS5003;41724;51.176;-0.708;2023-03-26T01:55:32;3;2;
55518;PMS5003;41724;51.176;-0.708;2023-03-26T01:58:09;2;1;
55518;PMS5003;41724;51.176;-0.708;2023-03-26T02:00:44;2;1;
55518;PMS5003;41724;51.176;-0.708;2023-03-26T02:03:20;1;1;
55518;PMS5003;41724;51.176;-0.708;2023-03-26T02:05:53;1;1;
55518;PMS5003;41724;51.176;-0.708;2023-03-26T02:08:27;1;1;
55518;PMS5003;41724;51.176;-0.708;2023-03-26T02:10:58;2;1;
55518;PMS5003;41724;51.176;-0.708;2023-03-26T02:13:28;1;1;
55518;PMS5003;41724;51.176;-0.708;2023-03-26T02:15:57;1;1;
55518;PMS5003;41724;51.176;-0.708;2023-03-26T02:18:24;3;1;
55518;PMS5003;41724;51.176;-0.708;2023-03-26T02:20:51;2;1;
55518;PMS5003;41724;51.176;-0.708;2023-03-26T02:23:19;2;2;
55518;PMS5003;41724;51.176;-0.708;2023-03-26T02:25:46;1;1;
55518;PMS5003;41724;51.176;-0.708;2023-03-26T02:28:13;2;2;
55518;PMS5003;41724;51.176;-0.708;2023-03-26T02:30:40;2;1;
55518;PMS5003;41724;51.176;-0.708;2023-03-26T02:33:07;2;2;
55518;PMS5003;41724;51.176;-0.708;2023-03-26T02:35:34;2;2;
55518;PMS5003;41724;51.176;-0.708;2023-03-26T02:38:01;3;2;
55518;PMS5003;41724;51.176;-0.708;2023-03-26T02:40:28;1;1;
55518;PMS5003;41724;51.176;-0.708;2023-03-26T02:42:55;2;2;
55518;PMS5003;41724;51.176;-0.708;2023-03-26T02:45:23;1;1;
55518;PMS5003;41724;51.176;-0.708;2023-03-26T02:47:50;1;1;
55518;PMS5003;41724;51.176;-0.708;2023-03-26T02:50:17;3;2;
55518;PMS5003;41724;51.176;-0.708;2023-03-26T02:52:44;2;2;
55518;PMS5003;41724;51.176;-0.708;2023-03-26T02:55:11;2;2;
55518;PMS5003;41724;51.176;-0.708;2023-03-26T02:57:38;0;0;
55518;PMS5003;41724;51.176;-0.708;2023-03-26T03:00:05;1;1;
55518;PMS5003;41724;51.176;-0.708;2023-03-26T03:02:33;1;0;
55518;PMS5003;41724;51.176;-0.708;2023-03-26T03:05:00;1;0;
55518;PMS5003;41724;51.176;-0.708;2023-03-26T03:07:27;0;0;
55518;PMS5003;41724;51.176;-0.708;2023-03-26T03:09:54;0;0;
55518;PMS5003;41724;51.176;-0.708;2023-03-26T03:12:22;0;0;
55518;PMS5003;41724;51.176;-0.708;2023-03-26T03:14:49;1;1;
55518;PMS5003;41724;51.176;-0.708;2023-03-26T03:17:16;2;2;
55518;PMS5003;41724;51.176;-0.708;2023-03-26T03:19:43;0;0;
55518;PMS5003;41724;51.176;-0.708;2023-03-26T03:22:10;0;0;
55518;PMS5003;41724;51.176;-0.708;2023-03-26T03:24:37;2;1;
55518;PMS5003;41724;51.176;-0.708;2023-03-26T03:27:05;0;0;
55518;PMS5003;41724;51.176;-0.708;2023-03-26T03:29:32;1;1;
55518;PMS5003;41724;51.176;-0.708;2023-03-26T03:31:59;1;1;
55518;PMS5003;41724;51.176;-0.708;2023-03-26T03:34:26;2;2;
55518;PMS5003;41724;51.176;-0.708;2023-03-26T03:36:53;0;0;
55518;PMS5003;41724;51.176;-0.708;2023-03-26T03:39:20;0;0;
55518;PMS5003;41724;51.176;-0.708;2023-03-26T03:41:49;0;0;
55518;PMS5003;41724;51.176;-0.708;2023-03-26T03:44:16;0;0;
55518;PMS5003;41724;51.176;-0.708;2023-03-26T03:46:43;1;1;
55518;PMS5003;41724;51.176;-0.708;2023-03-26T03:49:11;1;0;
55518;PMS5003;41724;51.176;-0.708;2023-03-26T03:51:38;0;0;
55518;PMS5003;41724;51.176;-0.708;2023-03-26T03:54:05;1;0;
55518;PMS5003;41724;51.176;-0.708;2023-03-26T03:56:32;0;0;
55518;PMS5003;41724;51.176;-0.708;2023-03-26T03:58:59;0;0;
55518;PMS5003;41724;51.176;-0.708;2023-03-26T04:01:27;0;0;
55518;PMS5003;41724;51.176;-0.708;2023-03-26T04:03:55;0;0;
55518;PMS5003;41724;51.176;-0.708;2023-03-26T04:06:22;0;0;
55518;PMS5003;41724;51.176;-0.708;2023-03-26T04:08:50;0;0;
55518;PMS5003;41724;51.176;-0.708;2023-03-26T04:11:17;0;0;
55518;PMS5003;41724;51.176;-0.708;2023-03-26T04:13:44;1;0;
55518;PMS5003;41724;51.176;-0.708;2023-03-26T04:16:11;0;0;
55518;PMS5003;41724;51.176;-0.708;2023-03-26T04:18:38;0;0;
55518;PMS5003;41724;51.176;-0.708;2023-03-26T04:21:05;0;0;
55518;PMS5003;41724;51.176;-0.708;2023-03-26T04:23:34;0;0;
55518;PMS5003;41724;51.176;-0.708;2023-03-26T04:26:02;0;0;
55518;PMS5003;41724;51.176;-0.708;2023-03-26T04:28:32;0;0;
55518;PMS5003;41724;51.176;-0.708;2023-03-26T04:31:08;0;0;
55518;PMS5003;41724;51.176;-0.708;2023-03-26T04:33:38;0;0;
55518;PMS5003;41724;51.176;-0.708;2023-03-26T04:36:05;1;1;
55518;PMS5003;41724;51.176;-0.708;2023-03-26T04:38:36;0;0;
55518;PMS5003;41724;51.176;-0.708;2023-03-26T04:41:08;0;0;
55518;PMS5003;41724;51.176;-0.708;2023-03-26T04:43:37;0;0;
55518;PMS5003;41724;51.176;-0.708;2023-03-26T04:46:04;0;0;
55518;PMS5003;41724;51.176;-0.708;2023-03-26T04:48:32;0;0;
55518;PMS5003;41724;51.176;-0.708;2023-03-26T04:50:59;0;0;
55518;PMS5003;41724;51.176;-0.708;2023-03-26T04:53:26;0;0;
55518;PMS5003;41724;51.176;-0.708;2023-03-26T04:55:54;0;0;
55518;PMS5003;41724;51.176;-0.708;2023-03-26T04:58:25;1;1;
55518;PMS5003;41724;51.176;-0.708;2023-03-26T05:00:52;1;1;
55518;PMS5003;41724;51.176;-0.708;2023-03-26T05:03:19;0;0;
55518;PMS5003;41724;51.176;-0.708;2023-03-26T05:05:46;2;1;
55518;PMS5003;41724;51.176;-0.708;2023-03-26T05:08:13;0;0;
55518;PMS5003;41724;51.176;-0.708;2023-03-26T05:10:40;0;0;
55518;PMS5003;41724;51.176;-0.708;2023-03-26T05:13:08;0;0;
55518;PMS5003;41724;51.176;-0.708;2023-03-26T05:15:35;1;0;
55518;PMS5003;41724;51.176;-0.708;2023-03-26T05:18:02;0;0;
55518;PMS5003;41724;51.176;-0.708;2023-03-26T05:20:29;0;0;
55518;PMS5003;41724;51.176;-0.708;2023-03-26T05:22:56;0;0;
55518;PMS5003;41724;51.176;-0.708;2023-03-26T05:25:23;0;0;
55518;PMS5003;41724;51.176;-0.708;2023-03-26T05:27:50;0;0;
55518;PMS5003;41724;51.176;-0.708;2023-03-26T05:30:18;0;0;
55518;PMS5003;41724;51.176;-0.708;2023-03-26T05:32:47;1;1;
55518;PMS5003;41724;51.176;-0.708;2023-03-26T05:35:14;0;0;
55518;PMS5003;41724;51.176;-0.708;2023-03-26T05:37:42;1;1;
55518;PMS5003;41724;51.176;-0.708;2023-03-26T05:40:10;0;0;
55518;PMS5003;41724;51.176;-0.708;2023-03-26T05:42:38;0;0;
55518;PMS5003;41724;51.176;-0.708;2023-03-26T05:45:07;0;0;
55518;PMS5003;41724;51.176;-0.708;2023-03-26T05:47:36;0;0;
55518;PMS5003;41724;51.176;-0.708;2023-03-26T05:50:04;4;1;
55518;PMS5003;41724;51.176;-0.708;2023-03-26T05:52:32;0;0;
55518;PMS5003;41724;51.176;-0.708;2023-03-26T05:54:59;0;0;
55518;PMS5003;41724;51.176;-0.708;2023-03-26T05:57:27;1;1;
55518;PMS5003;41724;51.176;-0.708;2023-03-26T05:59:55;2;2;
55518;PMS5003;41724;51.176;-0.708;2023-03-26T06:02:22;1;1;
55518;PMS5003;41724;51.176;-0.708;2023-03-26T06:04:49;1;0;
55518;PMS5003;41724;51.176;-0.708;2023-03-26T06:07:16;2;2;
55518;PMS5003;41724;51.176;-0.708;2023-03-26T06:09:44;1;1;
55518;PMS5003;41724;51.176;-0.708;2023-03-26T06:12:12;2;1;
55518;PMS5003;41724;51.176;-0.708;2023-03-26T06:14:40;3;3;
55518;PMS5003;41724;51.176;-0.708;2023-03-26T06:17:08;1;1;
55518;PMS5003;41724;51.176;-0.708;2023-03-26T06:19:36;1;1;
55518;PMS5003;41724;51.176;-0.708;2023-03-26T06:22:03;1;1;
55518;PMS5003;41724;51.176;-0.708;2023-03-26T06:24:31;1;1;
55518;PMS5003;41724;51.176;-0.708;2023-03-26T06:26:58;0;0;
55518;PMS5003;41724;51.176;-0.708;2023-03-26T06:29:25;0;0;
55518;PMS5003;41724;51.176;-0.708;2023-03-26T06:31:52;1;0;
55518;PMS5003;41724;51.176;-0.708;2023-03-26T06:34:19;1;1;
55518;PMS5003;41724;51.176;-0.708;2023-03-26T06:36:46;1;1;
55518;PMS5003;41724;51.176;-0.708;2023-03-26T06:39:13;0;0;
55518;PMS5003;41724;51.176;-0.708;2023-03-26T06:41:41;1;0;
55518;PMS5003;41724;51.176;-0.708;2023-03-26T06:44:08;0;0;
55518;PMS5003;41724;51.176;-0.708;2023-03-26T06:46:35;0;0;
55518;PMS5003;41724;51.176;-0.708;2023-03-26T06:49:02;1;1;
55518;PMS5003;41724;51.176;-0.708;2023-03-26T06:51:29;1;1;
55518;PMS5003;41724;51.176;-0.708;2023-03-26T06:53:56;0;0;
55518;PMS5003;41724;51.176;-0.708;2023-03-26T06:56:23;0;0;
55518;PMS5003;41724;51.176;-0.708;2023-03-26T06:58:51;0;0;
55518;PMS5003;41724;51.176;-0.708;2023-03-26T07:01:18;0;0;
55518;PMS5003;41724;51.176;-0.708;2023-03-26T07:03:45;0;0;
55518;PMS5003;41724;51.176;-0.708;2023-03-26T07:06:12;0;0;
55518;PMS5003;41724;51.176;-0.708;2023-03-26T07:08:39;0;0;
55518;PMS5003;41724;51.176;-0.708;2023-03-26T07:11:06;0;0;
55518;PMS5003;41724;51.176;-0.708;2023-03-26T07:13:33;2;1;
55518;PMS5003;41724;51.176;-0.708;2023-03-26T07:16:00;0;0;
55518;PMS5003;41724;51.176;-0.708;2023-03-26T07:18:28;1;0;
55518;PMS5003;41724;51.176;-0.708;2023-03-26T07:20:55;0;0;
55518;PMS5003;41724;51.176;-0.708;2023-03-26T07:23:23;0;0;
55518;PMS5003;41724;51.176;-0.708;2023-03-26T07:25:51;1;0;
55518;PMS5003;41724;51.176;-0.708;2023-03-26T07:28:22;0;0;
55518;PMS5003;41724;51.176;-0.708;2023-03-26T07:30:57;0;0;
55518;PMS5003;41724;51.176;-0.708;2023-03-26T07:33:30;0;0;
55518;PMS5003;41724;51.176;-0.708;2023-03-26T07:36:09;0;0;
55518;PMS5003;41724;51.176;-0.708;2023-03-26T07:38:56;1;1;
55518;PMS5003;41724;51.176;-0.708;2023-03-26T07:41:35;0;0;
55518;PMS5003;41724;51.176;-0.708;2023-03-26T07:44:19;2;1;
55518;PMS5003;41724;51.176;-0.708;2023-03-26T07:46:57;0;0;
55518;PMS5003;41724;51.176;-0.708;2023-03-26T07:49:27;1;1;
55518;PMS5003;41724;51.176;-0.708;2023-03-26T07:51:55;0;0;
55518;PMS5003;41724;51.176;-0.708;2023-03-26T07:54:23;1;0;
55518;PMS5003;41724;51.176;-0.708;2023-03-26T07:56:51;2;1;
55518;PMS5003;41724;51.176;-0.708;2023-03-26T07:59:23;0;0;
55518;PMS5003;41724;51.176;-0.708;2023-03-26T08:02:00;1;0;
55518;PMS5003;41724;51.176;-0.708;2023-03-26T08:04:51;0;0;
55518;PMS5003;41724;51.176;-0.708;2023-03-26T08:07:27;0;0;
55518;PMS5003;41724;51.176;-0.708;2023-03-26T08:10:05;0;0;
55518;PMS5003;41724;51.176;-0.708;2023-03-26T08:12:40;0;0;
55518;PMS5003;41724;51.176;-0.708;2023-03-26T08:15:17;1;0;
55518;PMS5003;41724;51.176;-0.708;2023-03-26T08:17:53;0;0;
55518;PMS5003;41724;51.176;-0.708;2023-03-26T08:20:29;0;0;
55518;PMS5003;41724;51.176;-0.708;2023-03-26T08:23:05;1;0;
55518;PMS5003;41724;51.176;-0.708;2023-03-26T08:25:45;0;0;
55518;PMS5003;41724;51.176;-0.708;2023-03-26T08:28:28;0;0;
55518;PMS5003;41724;51.176;-0.708;2023-03-26T08:31:05;0;0;
55518;PMS5003;41724;51.176;-0.708;2023-03-26T08:33:35;0;0;
55518;PMS5003;41724;51.176;-0.708;2023-03-26T08:36:02;0;0;
55518;PMS5003;41724;51.176;-0.708;2023-03-26T08:38:29;0;0;
55518;PMS5003;41724;51.176;-0.708;2023-03-26T08:41:11;0;0;
55518;PMS5003;41724;51.176;-0.708;2023-03-26T08:46:17;0;0;
55518;PMS5003;41724;51.176;-0.708;2023-03-26T08:49:00;0;0;
55518;PMS5003;41724;51.176;-0.708;2023-03-26T08:51:47;1;1;
55518;PMS5003;41724;51.176;-0.708;2023-03-26T08:54:46;0;0;
55518;PMS5003;41724;51.176;-0.708;2023-03-26T08:55:54;0;0;
55518;PMS5003;41724;51.176;-0.708;2023-03-26T08:59:04;0;0;
55518;PMS5003;41724;51.176;-0.708;2023-03-26T09:01:53;0;0;
55518;PMS5003;41724;51.176;-0.708;2023-03-26T09:06:32;0;0;
55518;PMS5003;41724;51.176;-0.708;2023-03-26T09:09:56;0;0;
55518;PMS5003;41724;51.176;-0.708;2023-03-26T09:12:39;0;0;
55518;PMS5003;41724;51.176;-0.708;2023-03-26T09:15:59;0;0;
55518;PMS5003;41724;51.176;-0.708;2023-03-26T09:18:55;0;0;
55518;PMS5003;41724;51.176;-0.708;2023-03-26T09:21:51;0;0;
55518;PMS5003;41724;51.176;-0.708;2023-03-26T09:25:12;0;0;
55518;PMS5003;41724;51.176;-0.708;2023-03-26T09:28:05;1;0;
55518;PMS5003;41724;51.176;-0.708;2023-03-26T09:31:01;0;0;
55518;PMS5003;41724;51.176;-0.708;2023-03-26T09:33:54;0;0;
55518;PMS5003;41724;51.176;-0.708;2023-03-26T09:36:30;0;0;
55518;PMS5003;41724;51.176;-0.708;2023-03-26T09:39:08;1;0;
55518;PMS5003;41724;51.176;-0.708;2023-03-26T09:41:41;0;0;
55518;PMS5003;41724;51.176;-0.708;2023-03-26T09:44:28;0;0;
55518;PMS5003;41724;51.176;-0.708;2023-03-26T09:47:21;0;0;
55518;PMS5003;41724;51.176;-0.708;2023-03-26T09:49:59;0;0;
55518;PMS5003;41724;51.176;-0.708;2023-03-26T09:52:48;0;0;
55518;PMS5003;41724;51.176;-0.708;2023-03-26T09:55:28;0;0;
55518;PMS5003;41724;51.176;-0.708;2023-03-26T10:00:21;0;0;
55518;PMS5003;41724;51.176;-0.708;2023-03-26T10:03:02;0;0;
55518;PMS5003;41724;51.176;-0.708;2023-03-26T10:05:48;0;0;
55518;PMS5003;41724;51.176;-0.708;2023-03-26T10:08:32;0;0;
55518;PMS5003;41724;51.176;-0.708;2023-03-26T10:11:12;0;0;
55518;PMS5003;41724;51.176;-0.708;2023-03-26T10:13:51;0;0;
55518;PMS5003;41724;51.176;-0.708;2023-03-26T10:16:29;0;0;
55518;PMS5003;41724;51.176;-0.708;2023-03-26T10:19:09;0;0;
55518;PMS5003;41724;51.176;-0.708;2023-03-26T10:21:53;0;0;
55518;PMS5003;41724;51.176;-0.708;2023-03-26T10:24:32;0;0;
55518;PMS5003;41724;51.176;-0.708;2023-03-26T10:27:17;0;0;
55518;PMS5003;41724;51.176;-0.708;2023-03-26T10:30:02;0;0;
55518;PMS5003;41724;51.176;-0.708;2023-03-26T10:32:47;0;0;
55518;PMS5003;41724;51.176;-0.708;2023-03-26T10:35:25;0;0;
55518;PMS5003;41724;51.176;-0.708;2023-03-26T10:38:11;0;0;
55518;PMS5003;41724;51.176;-0.708;2023-03-26T10:40:47;0;0;
55518;PMS5003;41724;51.176;-0.708;2023-03-26T10:43:43;1;0;
55518;PMS5003;41724;51.176;-0.708;2023-03-26T10:47:00;0;0;
55518;PMS5003;41724;51.176;-0.708;2023-03-26T10:49:47;0;0;
55518;PMS5003;41724;51.176;-0.708;2023-03-26T10:52:26;0;0;
55518;PMS5003;41724;51.176;-0.708;2023-03-26T10:55:02;1;0;
55518;PMS5003;41724;51.176;-0.708;2023-03-26T10:57:43;0;0;
55518;PMS5003;41724;51.176;-0.708;2023-03-26T11:00:16;1;0;
55518;PMS5003;41724;51.176;-0.708;2023-03-26T11:02:46;0;0;
55518;PMS5003;41724;51.176;-0.708;2023-03-26T11:05:40;0;0;
55518;PMS5003;41724;51.176;-0.708;2023-03-26T11:08:17;0;0;
55518;PMS5003;41724;51.176;-0.708;2023-03-26T11:10:52;1;1;
55518;PMS5003;41724;51.176;-0.708;2023-03-26T11:13:31;1;1;
55518;PMS5003;41724;51.176;-0.708;2023-03-26T11:16:11;1;1;
55518;PMS5003;41724;51.176;-0.708;2023-03-26T11:18:49;2;1;
55518;PMS5003;41724;51.176;-0.708;2023-03-26T11:21:23;0;0;
55518;PMS5003;41724;51.176;-0.708;2023-03-26T11:23:56;1;1;
55518;PMS5003;41724;51.176;-0.708;2023-03-26T11:26:35;0;0;
55518;PMS5003;41724;51.176;-0.708;2023-03-26T11:29:21;1;1;
55518;PMS5003;41724;51.176;-0.708;2023-03-26T11:32:00;6;6;
55518;PMS5003;41724;51.176;-0.708;2023-03-26T11:34:37;4;4;
55518;PMS5003;41724;51.176;-0.708;2023-03-26T11:37:14;11;11;
55518;PMS5003;41724;51.176;-0.708;2023-03-26T11:39:50;3;3;
55518;PMS5003;41724;51.176;-0.708;2023-03-26T11:42:23;1;1;
55518;PMS5003;41724;51.176;-0.708;2023-03-26T11:44:52;2;1;
55518;PMS5003;41724;51.176;-0.708;2023-03-26T11:47:22;1;1;
55518;PMS5003;41724;51.176;-0.708;2023-03-26T11:49:57;1;1;
55518;PMS5003;41724;51.176;-0.708;2023-03-26T11:52:26;1;1;
55518;PMS5003;41724;51.176;-0.708;2023-03-26T11:54:54;2;2;
55518;PMS5003;41724;51.176;-0.708;2023-03-26T11:57:24;1;1;
55518;PMS5003;41724;51.176;-0.708;2023-03-26T11:59:57;2;2;
55518;PMS5003;41724;51.176;-0.708;2023-03-26T12:02:29;4;3;
55518;PMS5003;41724;51.176;-0.708;2023-03-26T12:05:10;3;3;
55518;PMS5003;41724;51.176;-0.708;2023-03-26T12:07:44;9;8;
55518;PMS5003;41724;51.176;-0.708;2023-03-26T12:10:32;4;4;
55518;PMS5003;41724;51.176;-0.708;2023-03-26T12:13:02;1;1;
55518;PMS5003;41724;51.176;-0.708;2023-03-26T12:15:56;2;2;
55518;PMS5003;41724;51.176;-0.708;2023-03-26T12:18:27;1;1;
55518;PMS5003;41724;51.176;-0.708;2023-03-26T12:21:03;2;2;
55518;PMS5003;41724;51.176;-0.708;2023-03-26T12:23:33;3;3;
55518;PMS5003;41724;51.176;-0.708;2023-03-26T12:26:09;3;3;
55518;PMS5003;41724;51.176;-0.708;2023-03-26T12:28:44;3;3;
55518;PMS5003;41724;51.176;-0.708;2023-03-26T12:31:13;2;2;
55518;PMS5003;41724;51.176;-0.708;2023-03-26T12:33:41;1;1;
55518;PMS5003;41724;51.176;-0.708;2023-03-26T12:36:15;2;2;
55518;PMS5003;41724;51.176;-0.708;2023-03-26T12:38:46;2;2;
55518;PMS5003;41724;51.176;-0.708;2023-03-26T12:41:14;3;2;
55518;PMS5003;41724;51.176;-0.708;2023-03-26T12:43:43;2;2;
55518;PMS5003;41724;51.176;-0.708;2023-03-26T12:46:21;4;4;
55518;PMS5003;41724;51.176;-0.708;2023-03-26T12:48:52;3;3;
55518;PMS5003;41724;51.176;-0.708;2023-03-26T12:51:24;3;3;
55518;PMS5003;41724;51.176;-0.708;2023-03-26T12:54:06;2;2;
55518;PMS5003;41724;51.176;-0.708;2023-03-26T12:56:47;3;3;
55518;PMS5003;41724;51.176;-0.708;2023-03-26T12:59:27;2;2;
55518;PMS5003;41724;51.176;-0.708;2023-03-26T13:02:15;3;3;
55518;PMS5003;41724;51.176;-0.708;2023-03-26T13:05:00;1;1;
55518;PMS5003;41724;51.176;-0.708;2023-03-26T13:07:52;2;2;
55518;PMS5003;41724;51.176;-0.708;2023-03-26T13:10:37;4;3;
55518;PMS5003;41724;51.176;-0.708;2023-03-26T13:13:19;3;3;
55518;PMS5003;41724;51.176;-0.708;2023-03-26T13:16:00;3;2;
55518;PMS5003;41724;51.176;-0.708;2023-03-26T13:18:43;1;1;
55518;PMS5003;41724;51.176;-0.708;2023-03-26T13:21:17;4;4;
55518;PMS5003;41724;51.176;-0.708;2023-03-26T13:23:53;3;3;
55518;PMS5003;41724;51.176;-0.708;2023-03-26T13:26:36;3;3;
55518;PMS5003;41724;51.176;-0.708;2023-03-26T13:29:17;3;2;
55518;PMS5003;41724;51.176;-0.708;2023-03-26T13:31:55;4;3;
55518;PMS5003;41724;51.176;-0.708;2023-03-26T13:34:30;4;4;
55518;PMS5003;41724;51.176;-0.708;2023-03-26T13:37:13;5;4;
55518;PMS5003;41724;51.176;-0.708;2023-03-26T13:39:52;4;4;
55518;PMS5003;41724;51.176;-0.708;2023-03-26T13:42:31;4;4;
55518;PMS5003;41724;51.176;-0.708;2023-03-26T13:45:11;5;5;
55518;PMS5003;41724;51.176;-0.708;2023-03-26T13:47:48;6;5;
55518;PMS5003;41724;51.176;-0.708;2023-03-26T13:50:21;4;3;
55518;PMS5003;41724;51.176;-0.708;2023-03-26T13:52:52;5;5;
55518;PMS5003;41724;51.176;-0.708;2023-03-26T13:55:26;6;5;
55518;PMS5003;41724;51.176;-0.708;2023-03-26T13:57:59;7;6;
55518;PMS5003;41724;51.176;-0.708;2023-03-26T14:00:32;5;4;
55518;PMS5003;41724;51.176;-0.708;2023-03-26T14:03:16;9;7;
55518;PMS5003;41724;51.176;-0.708;2023-03-26T14:05:56;7;5;
55518;PMS5003;41724;51.176;-0.708;2023-03-26T14:08:31;8;5;
55518;PMS5003;41724;51.176;-0.708;2023-03-26T14:11:03;8;6;
55518;PMS5003;41724;51.176;-0.708;2023-03-26T14:13:37;5;5;
55518;PMS5003;41724;51.176;-0.708;2023-03-26T14:16:14;8;7;
55518;PMS5003;41724;51.176;-0.708;2023-03-26T14:18:46;5;5;
55518;PMS5003;41724;51.176;-0.708;2023-03-26T14:21:26;6;6;
55518;PMS5003;41724;51.176;-0.708;2023-03-26T14:24:43;8;6;
55518;PMS5003;41724;51.176;-0.708;2023-03-26T14:27:24;7;7;
55518;PMS5003;41724;51.176;-0.708;2023-03-26T14:31:12;6;6;
55518;PMS5003;41724;51.176;-0.708;2023-03-26T14:33:51;9;8;
55518;PMS5003;41724;51.176;-0.708;2023-03-26T14:36:39;6;5;
55518;PMS5003;41724;51.176;-0.708;2023-03-26T14:39:28;9;8;
55518;PMS5003;41724;51.176;-0.708;2023-03-26T14:42:10;10;7;
55518;PMS5003;41724;51.176;-0.708;2023-03-26T14:44:54;7;6;
55518;PMS5003;41724;51.176;-0.708;2023-03-26T14:47:56;8;7;
55518;PMS5003;41724;51.176;-0.708;2023-03-26T14:50:40;11;8;
55518;PMS5003;41724;51.176;-0.708;2023-03-26T14:53:25;11;8;
55518;PMS5003;41724;51.176;-0.708;2023-03-26T14:56:01;9;9;
55518;PMS5003;41724;51.176;-0.708;2023-03-26T14:58:55;10;9;
55518;PMS5003;41724;51.176;-0.708;2023-03-26T15:01:22;10;9;
55518;PMS5003;41724;51.176;-0.708;2023-03-26T15:06:13;10;9;
55518;PMS5003;41724;51.176;-0.708;2023-03-26T15:09:09;12;9;
55518;PMS5003;41724;51.176;-0.708;2023-03-26T15:11:58;8;6;
55518;PMS5003;41724;51.176;-0.708;2023-03-26T15:14:52;14;13;
55518;PMS5003;41724;51.176;-0.708;2023-03-26T15:18:04;12;11;
55518;PMS5003;41724;51.176;-0.708;2023-03-26T15:20:58;7;6;
55518;PMS5003;41724;51.176;-0.708;2023-03-26T15:23:56;8;6;
55518;PMS5003;41724;51.176;-0.708;2023-03-26T15:27:09;16;10;
55518;PMS5003;41724;51.176;-0.708;2023-03-26T15:30:30;10;8;
55518;PMS5003;41724;51.176;-0.708;2023-03-26T15:32:54;10;8;
55518;PMS5003;41724;51.176;-0.708;2023-03-26T15:35:45;10;8;
55518;PMS5003;41724;51.176;-0.708;2023-03-26T15:38:52;9;8;
55518;PMS5003;41724;51.176;-0.708;2023-03-26T15:41:40;9;7;
55518;PMS5003;41724;51.176;-0.708;2023-03-26T15:44:22;9;8;
55518;PMS5003;41724;51.176;-0.708;2023-03-26T15:47:16;8;8;
55518;PMS5003;41724;51.176;-0.708;2023-03-26T15:49:58;9;9;
55518;PMS5003;41724;51.176;-0.708;2023-03-26T15:52:37;12;9;
55518;PMS5003;41724;51.176;-0.708;2023-03-26T15:55:20;8;7;
55518;PMS5003;41724;51.176;-0.708;2023-03-26T15:57:58;7;7;
55518;PMS5003;41724;51.176;-0.708;2023-03-26T16:00:31;7;6;
55518;PMS5003;41724;51.176;-0.708;2023-03-26T16:03:10;7;7;
55518;PMS5003;41724;51.176;-0.708;2023-03-26T16:05:53;6;6;
55518;PMS5003;41724;51.176;-0.708;2023-03-26T16:08:37;9;7;
55518;PMS5003;41724;51.176;-0.708;2023-03-26T16:11:10;6;4;
55518;PMS5003;41724;51.176;-0.708;2023-03-26T16:13:38;9;6;
55518;PMS5003;41724;51.176;-0.708;2023-03-26T16:16:17;8;6;
55518;PMS5003;41724;51.176;-0.708;2023-03-26T16:18:47;6;5;
55518;PMS5003;41724;51.176;-0.708;2023-03-26T16:21:38;5;5;
55518;PMS5003;41724;51.176;-0.708;2023-03-26T16:24:21;6;5;
55518;PMS5003;41724;51.176;-0.708;2023-03-26T16:26:59;6;5;
55518;PMS5003;41724;51.176;-0.708;2023-03-26T16:29:29;5;5;
55518;PMS5003;41724;51.176;-0.708;2023-03-26T16:32:03;6;5;
55518;PMS5003;41724;51.176;-0.708;2023-03-26T16:34:49;5;4;
55518;PMS5003;41724;51.176;-0.708;2023-03-26T16:37:38;3;3;
55518;PMS5003;41724;51.176;-0.708;2023-03-26T16:41:14;5;5;
55518;PMS5003;41724;51.176;-0.708;2023-03-26T16:43:55;8;6;
55518;PMS5003;41724;51.176;-0.708;2023-03-26T16:46:35;2;2;
55518;PMS5003;41724;51.176;-0.708;2023-03-26T16:49:15;5;5;
55518;PMS5003;41724;51.176;-0.708;2023-03-26T16:51:57;6;5;
55518;PMS5003;41724;51.176;-0.708;2023-03-26T16:54:37;4;4;
55518;PMS5003;41724;51.176;-0.708;2023-03-26T16:57:19;3;3;
55518;PMS5003;41724;51.176;-0.708;2023-03-26T16:59:56;4;3;
55518;PMS5003;41724;51.176;-0.708;2023-03-26T17:02:51;4;3;
55518;PMS5003;41724;51.176;-0.708;2023-03-26T17:05:31;4;4;
55518;PMS5003;41724;51.176;-0.708;2023-03-26T17:08:05;4;3;
55518;PMS5003;41724;51.176;-0.708;2023-03-26T17:10:44;5;4;
55518;PMS5003;41724;51.176;-0.708;2023-03-26T17:13:22;3;3;
55518;PMS5003;41724;51.176;-0.708;2023-03-26T17:15:55;3;3;
55518;PMS5003;41724;51.176;-0.708;2023-03-26T17:18:30;3;3;
55518;PMS5003;41724;51.176;-0.708;2023-03-26T17:21:07;2;2;
55518;PMS5003;41724;51.176;-0.708;2023-03-26T17:23:48;3;3;
55518;PMS5003;41724;51.176;-0.708;2023-03-26T17:26:27;4;3;
55518;PMS5003;41724;51.176;-0.708;2023-03-26T17:29:11;5;4;
55518;PMS5003;41724;51.176;-0.708;2023-03-26T17:31:58;3;3;
55518;PMS5003;41724;51.176;-0.708;2023-03-26T17:34:32;3;3;
55518;PMS5003;41724;51.176;-0.708;2023-03-26T17:37:36;4;4;